Time;durP1;ratioP1;P1;durP2;ratioP2;P2;SDS_P1;SDS_P2;PMS_P1;PMS_P2;Temp;Humidity;BMP_temperature;BMP_pressure;BME280_temperature;BME280_humidity;BME280_pressure;Samples;Min_cycle;Max_cycle;Signal;HPM_P1;HPM_P2
2022/07/10 13:25:03;;;;;;;16.48;6.68;;;;;;;41.15;21.13;99322.78;6128747;22;2690134;-86
2022/07/10 13:28:05;;;;;;;13.60;6.90;;;;;;;41.31;20.95;99319.50;6181963;23;20026;-82
2022/07/10 13:30:49;;;;;;;7.75;6.50;;;;;;;40.70;21.23;99303.31;6131540;23;20079;-84
2022/07/10 13:33:47;;;;;;;12.18;6.88;;;;;;;40.36;21.95;99305.88;6159903;23;20027;-82
2022/07/10 13:36:28;;;;;;;8.45;6.72;;;;;;;39.43;22.33;99314.88;6157564;23;20379;-78
2022/07/10 13:39:41;;;;;;;24.67;6.50;;;;;;;39.48;22.79;99320.34;6185411;23;20056;-91
2022/07/10 13:42:07;;;;;;;11.57;7.00;;;;;;;39.52;23.51;99315.78;6175978;23;20024;-83
2022/07/10 13:44:33;;;;;;;13.38;6.35;;;;;;;38.83;24.72;99313.06;6212686;23;20075;-81
2022/07/10 13:46:59;;;;;;;9.50;6.65;;;;;;;37.45;26.70;99314.50;6188428;23;20483;-84
2022/07/10 13:49:27;;;;;;;9.52;6.85;;;;;;;37.15;27.38;99313.78;6212534;23;20092;-86
2022/07/10 13:51:52;;;;;;;;;;;;;;;37.18;27.51;99315.97;6201355;23;20024;-85
2022/07/10 13:54:18;;;;;;;11.05;7.30;;;;;;;36.73;27.73;99320.94;6218201;23;19922;-82
2022/07/10 13:56:44;;;;;;;11.27;6.80;;;;;;;36.14;28.43;99322.06;6218965;23;20016;-83
2022/07/10 13:59:09;;;;;;;8.93;7.00;;;;;;;36.10;28.38;99318.22;6219961;23;20024;-87
2022/07/10 14:01:35;;;;;;;13.52;7.10;;;;;;;35.97;28.77;99326.06;6218952;23;20066;-84
2022/07/10 14:04:01;;;;;;;12.80;7.80;;;;;;;35.80;28.97;99314.50;6245761;23;20027;-87
2022/07/10 14:06:27;;;;;;;15.27;8.05;;;;;;;35.40;29.56;99319.22;6218207;23;20016;-81
2022/07/10 14:08:53;;;;;;;17.58;7.85;;;;;;;35.32;30.09;99319.81;6245140;23;20020;-82
2022/07/10 14:11:19;;;;;;;16.23;8.38;;;;;;;35.14;30.45;99317.69;6244907;23;20405;-84
2022/07/10 14:13:46;;;;;;;16.20;8.10;;;;;;;34.55;31.00;99325.63;6166205;23;20016;-79
2022/07/10 14:16:11;;;;;;;12.38;8.90;;;;;;;34.40;31.39;99320.06;6243141;23;20020;-80
2022/07/10 14:18:40;;;;;;;26.60;8.40;;;;;;;34.37;31.61;99326.16;6216469;23;20505;-78
2022/07/10 14:21:08;;;;;;;22.40;8.70;;;;;;;34.32;31.45;99327.00;6191376;23;20045;-78
2022/07/10 14:23:43;;;;;;;16.58;8.52;;;;;;;34.30;31.93;99342.28;6161274;23;20107;-78
2022/07/10 14:26:13;;;;;;;12.45;8.13;;;;;;;34.87;31.20;99343.03;6162415;23;20051;-79
2022/07/10 14:28:40;;;;;;;11.32;7.72;;;;;;;34.89;30.70;99338.84;6186381;23;20016;-79
2022/07/10 14:31:07;;;;;;;10.05;7.93;;;;;;;34.53;30.87;99329.81;6211745;23;20013;-80
2022/07/10 14:33:33;;;;;;;14.15;8.68;;;;;;;34.28;31.62;99344.50;6211552;23;20024;-78
2022/07/10 14:36:03;;;;;;;14.63;8.80;;;;;;;34.18;31.80;99344.50;6161552;23;20092;-85
2022/07/10 14:38:29;;;;;;;14.00;8.65;;;;;;;34.29;32.19;99346.16;6186557;23;20016;-81
2022/07/10 14:40:55;;;;;;;22.33;10.20;;;;;;;34.32;32.06;99340.88;6161560;23;20312;-78
2022/07/10 14:43:24;;;;;;;11.40;8.63;;;;;;;33.86;32.79;99347.53;6186233;23;20020;-78
2022/07/10 14:45:51;;;;;;;12.43;8.32;;;;;;;33.58;33.80;99346.91;6186515;23;20055;-77
2022/07/10 14:48:18;;;;;;;14.82;9.00;;;;;;;33.16;34.55;99345.09;6211171;23;20035;-78
2022/07/10 14:50:44;;;;;;;16.50;9.37;;;;;;;32.76;35.29;99359.53;6161554;23;20016;-78
2022/07/10 14:53:11;;;;;;;11.55;8.70;;;;;;;32.74;35.47;99353.44;6161473;23;20310;-79
2022/07/10 14:55:37;;;;;;;16.45;9.27;;;;;;;32.48;36.22;99355.22;6186054;23;20513;-78
2022/07/10 14:58:03;;;;;;;19.98;9.18;;;;;;;32.25;36.68;99361.94;6161775;23;20159;-78
2022/07/10 15:00:30;;;;;;;14.13;9.30;;;;;;;32.18;36.90;99362.13;6213028;23;20163;-80
2022/07/10 15:02:58;;;;;;;17.20;10.10;;;;;;;32.27;36.91;99365.25;6213145;23;20100;-79
2022/07/10 15:05:24;;;;;;;12.95;10.05;;;;;;;32.17;37.28;99361.31;6186060;23;20118;-79
2022/07/10 15:07:51;;;;;;;21.52;9.93;;;;;;;31.79;37.78;99354.03;6161493;23;20444;-78
2022/07/10 15:10:19;;;;;;;15.05;9.50;;;;;;;31.76;38.10;99348.19;6186376;23;20020;-78
2022/07/10 15:12:46;;;;;;;14.82;8.77;;;;;;;31.86;37.94;99353.84;6213106;23;20071;-78
2022/07/10 15:15:12;;;;;;;17.07;9.07;;;;;;;32.07;37.84;99347.38;6186774;23;20020;-78
2022/07/10 15:17:38;;;;;;;22.55;8.82;;;;;;;31.91;37.84;99351.97;6161206;23;20023;-79
2022/07/10 15:20:05;;;;;;;16.42;8.15;;;;;;;31.87;38.11;99350.00;6163061;23;20016;-78
2022/07/10 15:22:32;;;;;;;11.77;8.77;;;;;;;31.82;38.50;99347.97;6188082;23;20025;-78
2022/07/10 15:24:58;;;;;;;13.07;7.90;;;;;;;32.09;38.16;99347.97;6188246;23;20443;-78
2022/07/10 15:27:24;;;;;;;14.93;8.55;;;;;;;32.46;37.55;99338.88;6188093;23;20451;-79
2022/07/10 15:29:53;;;;;;;21.42;8.73;;;;;;;32.68;36.84;99346.19;6188270;23;20019;-79
2022/07/10 15:32:19;;;;;;;13.02;8.35;;;;;;;32.98;36.45;99343.63;6188063;23;20103;-79
2022/07/10 15:34:45;;;;;;;16.35;8.63;;;;;;;33.32;36.11;99352.34;6187945;23;20036;-78
2022/07/10 15:37:11;;;;;;;18.23;8.30;;;;;;;34.08;35.01;99354.50;6214863;23;20023;-78
2022/07/10 15:39:41;;;;;;;16.02;8.30;;;;;;;34.39;34.33;99350.88;6214746;23;20563;-78
2022/07/10 15:42:08;;;;;;;13.68;8.57;;;;;;;34.95;33.83;99356.34;6214548;23;20463;-78
2022/07/10 15:44:34;;;;;;;12.47;8.60;;;;;;;35.41;33.04;99367.28;6214704;23;20113;-78
2022/07/10 15:47:01;;;;;;;19.95;8.02;;;;;;;35.62;32.54;99357.75;6214247;23;20040;-78
2022/07/10 15:49:27;;;;;;;10.48;7.93;;;;;;;35.29;32.72;99362.06;6162721;23;20114;-79
2022/07/10 15:51:54;;;;;;;24.55;8.60;;;;;;;34.94;33.15;99351.88;6187465;23;20511;-78
2022/07/10 15:54:22;;;;;;;15.73;9.07;;;;;;;33.62;35.39;99358.28;6187704;23;20024;-77
2022/07/10 15:56:48;;;;;;;11.25;8.27;;;;;;;32.48;37.60;99353.28;6212873;23;20024;-79
2022/07/10 15:59:14;;;;;;;18.42;8.95;;;;;;;31.90;38.69;99355.81;6187696;23;20277;-79
2022/07/10 16:01:41;;;;;;;15.73;8.95;;;;;;;31.24;40.31;99376.31;6213108;23;20017;-78
2022/07/10 16:04:06;;;;;;;13.20;9.02;;;;;;;30.93;40.64;99375.91;6213561;23;20074;-79
2022/07/10 16:06:32;;;;;;;22.45;9.73;;;;;;;30.62;41.49;99372.69;6098079;23;20028;-77
2022/07/10 16:08:59;;;;;;;15.48;9.45;;;;;;;30.35;42.42;99368.94;6098392;23;20097;-78
2022/07/10 16:11:26;;;;;;;11.38;9.98;;;;;;;30.05;42.72;99371.97;6073507;23;20030;-79
2022/07/10 16:13:52;;;;;;;18.13;10.13;;;;;;;29.98;42.94;99373.00;6097595;23;20138;-81
2022/07/10 16:17:13;;;;;;;15.75;9.73;;;;;;;29.84;43.32;99376.31;6121545;23;20416;-87
2022/07/10 16:20:55;;;;;;;24.70;11.25;;;;;;;29.35;44.31;99370.38;6092185;23;20100;-87
2022/07/10 16:28:00;;;;;;;18.13;11.07;;;;;;;28.75;46.38;99377.06;6043455;23;20027;-84
2022/07/10 16:31:04;;;;;;;20.90;11.15;;;;;;;28.38;47.34;99380.03;6009598;23;20027;-87
2022/07/10 16:34:42;;;;;;;;;;;;;;;;;;;;;
2022/07/10 16:37:37;;;;;;;16.90;11.90;;;;;;;27.97;48.28;99386.38;6044894;23;20406;-84
2022/07/10 16:40:33;;;;;;;13.13;11.38;;;;;;;27.86;48.54;99387.19;5994013;23;20023;-84
2022/07/10 16:44:24;;;;;;;18.50;11.82;;;;;;;27.79;49.08;99401.84;6010142;23;20070;-85
2022/07/10 16:47:27;;;;;;;;;;;;;;;;;;;;;
2022/07/10 16:50:39;;;;;;;22.88;11.48;;;;;;;27.50;50.03;99405.44;5992609;23;20308;-86
2022/07/10 16:53:34;;;;;;;15.02;11.77;;;;;;;27.44;49.79;99403.59;6005109;23;20020;-86
2022/07/10 16:57:11;;;;;;;;;;;;;;;;;;;;;
2022/07/10 17:01:10;;;;;;;;;;;;;;;;;;;;;
2022/07/10 17:04:38;;;;;;;18.85;11.93;;;;;;;27.16;50.47;99415.97;6063622;23;20034;-85
2022/07/10 17:07:53;;;;;;;15.63;11.98;;;;;;;27.11;50.93;99424.03;6006036;23;20019;-85
2022/07/10 17:11:29;;;;;;;18.10;11.82;;;;;;;27.02;50.99;99417.16;6063676;23;20033;-84
2022/07/10 17:15:27;;;;;;;;;;;;;;;27.09;51.04;99426.16;6000434;23;20588;-84
2022/07/10 17:25:16;;;;;;;;;;;;;;;;;;;;;
2022/07/10 17:31:08;;;;;;;26.77;14.05;;;;;;;26.61;51.81;99413.97;6062977;23;20026;-85
2022/07/10 17:38:25;;;;;;;;;;;;;;;;;;;;;
2022/07/10 17:46:35;;;;;;;23.80;12.10;;;;;;;26.52;52.89;99439.16;5930817;24;20123;-87
2022/07/10 17:49:33;;;;;;;21.30;12.30;;;;;;;26.42;53.00;99422.34;5929505;24;20026;-89
2022/07/10 17:52:37;;;;;;;12.13;10.65;;;;;;;26.47;53.35;99430.75;5965636;23;20087;-81
2022/07/10 17:55:24;;;;;;;19.13;12.13;;;;;;;26.38;53.78;99420.06;5960186;23;20023;-84
2022/07/10 17:58:28;;;;;;;18.50;12.80;;;;;;;26.31;53.80;99418.44;6020061;23;20369;-91
2022/07/10 18:01:48;;;;;;;18.35;12.48;;;;;;;26.31;53.84;99424.75;6016319;23;20018;-85
2022/07/10 18:04:29;;;;;;;16.50;12.27;;;;;;;26.15;54.32;99414.34;6019313;23;20083;-87
2022/07/10 18:07:54;;;;;;;15.63;12.65;;;;;;;26.10;54.23;99415.00;6100552;23;20018;-89
2022/07/10 18:11:27;;;;;;;19.63;12.25;;;;;;;26.08;54.62;99432.72;6071381;23;20449;-86
2022/07/10 18:13:58;;;;;;;18.38;12.05;;;;;;;26.02;54.91;99425.38;6068004;23;20022;-81
2022/07/10 18:17:04;;;;;;;19.88;11.68;;;;;;;25.98;54.91;99437.84;6044469;23;20469;-86
2022/07/10 18:19:37;;;;;;;19.98;12.40;;;;;;;25.96;54.84;99431.75;6096469;23;20065;-83
2022/07/10 18:22:12;;;;;;;20.27;12.85;;;;;;;25.85;55.22;99419.59;6121064;23;20029;-84
2022/07/10 18:25:45;;;;;;;;;;;;;;;;;;;;;
2022/07/10 18:29:03;;;;;;;14.30;11.90;;;;;;;25.82;55.79;99440.03;5893963;23;20502;-87
2022/07/10 18:31:48;;;;;;;17.20;12.00;;;;;;;25.73;55.55;99424.91;6008954;23;20446;-87
2022/07/10 18:34:39;;;;;;;17.60;12.18;;;;;;;25.75;55.99;99447.41;5965492;23;20019;-83
2022/07/10 18:40:28;;;;;;;16.80;13.00;;;;;;;25.41;56.63;99430.31;6010012;23;20030;-87
2022/07/10 18:43:11;;;;;;;13.23;11.93;;;;;;;25.36;56.70;99438.34;5988725;23;20023;-86
2022/07/10 18:46:00;;;;;;;18.67;12.95;;;;;;;25.31;57.31;99440.91;6010131;23;20070;-85
2022/07/10 18:48:43;;;;;;;15.75;12.18;;;;;;;25.24;57.58;99433.75;5977856;24;20529;-85
2022/07/10 18:52:04;;;;;;;15.32;12.80;;;;;;;25.19;58.08;99426.19;5984917;23;20019;-88
2022/07/10 18:55:08;;;;;;;20.05;11.93;;;;;;;25.18;57.71;99429.97;5979038;23;20678;-84
2022/07/10 18:59:03;;;;;;;15.40;12.20;;;;;;;25.14;58.00;99428.72;6091679;23;20163;-85
2022/07/10 19:02:22;;;;;;;16.50;12.68;;;;;;;25.10;58.42;99425.59;6061992;23;20046;-84
2022/07/10 19:04:59;;;;;;;14.85;12.25;;;;;;;25.06;58.79;99420.75;6039390;23;20071;-86
2022/07/10 19:07:59;;;;;;;17.42;12.65;;;;;;;25.06;58.86;99426.22;6044849;23;20022;-86
2022/07/10 19:11:02;;;;;;;13.23;11.60;;;;;;;24.96;59.30;99427.47;6038747;23;20070;-85
2022/07/10 19:13:53;;;;;;;;;;;;;;;;;;;;;
2022/07/10 19:22:04;;;;;;;;;;;;;;;;;;;;;
2022/07/10 19:25:10;;;;;;;;;;;;;;;;;;;;;
2022/07/10 19:28:35;;;;;;;20.35;13.15;;;;;;;24.83;59.90;99424.78;6070094;23;20057;-89
2022/07/10 19:31:04;;;;;;;15.70;12.38;;;;;;;24.85;59.81;99427.28;6098090;23;20022;-86
2022/07/10 19:33:30;;;;;;;17.25;12.82;;;;;;;24.74;60.39;99431.50;6097866;23;20078;-85
2022/07/10 19:35:56;;;;;;;13.93;12.52;;;;;;;24.68;60.18;99427.75;6138652;23;20018;-85
2022/07/10 19:38:25;;;;;;;16.63;12.98;;;;;;;24.71;60.21;99429.19;6153310;23;20025;-85
2022/07/10 19:40:52;;;;;;;16.17;13.25;;;;;;;24.67;60.42;99434.28;6134028;23;20017;-85
2022/07/10 19:43:19;;;;;;;17.80;13.13;;;;;;;24.65;60.38;99439.09;6184212;23;20096;-86
2022/07/10 19:45:45;;;;;;;18.38;13.45;;;;;;;24.56;60.93;99442.25;6183586;23;20114;-87
2022/07/10 19:48:11;;;;;;;14.95;13.55;;;;;;;24.46;61.31;99437.22;6183522;23;20021;-86
2022/07/10 19:50:36;;;;;;;16.88;13.82;;;;;;;24.33;62.05;99442.63;6208907;23;20471;-86
2022/07/10 19:53:04;;;;;;;16.65;14.10;;;;;;;24.24;61.96;99450.22;6185221;23;20075;-86
2022/07/10 19:55:30;;;;;;;15.70;13.57;;;;;;;24.15;62.05;99426.91;6185297;23;20017;-86
2022/07/10 19:57:57;;;;;;;17.40;13.40;;;;;;;24.12;62.36;99441.78;6183526;23;20025;-86
2022/07/10 20:00:23;;;;;;;17.80;14.05;;;;;;;24.07;62.76;99438.00;6185000;23;20016;-85
2022/07/10 20:02:51;;;;;;;16.33;14.55;;;;;;;24.03;62.62;99442.19;6183610;23;20487;-85
2022/07/10 20:05:17;;;;;;;16.10;13.40;;;;;;;23.99;62.36;99441.75;6185689;23;20449;-85
2022/07/10 20:07:43;;;;;;;20.33;14.45;;;;;;;23.90;63.11;99432.94;6187548;23;20041;-85
2022/07/10 20:10:09;;;;;;;20.70;14.75;;;;;;;23.91;63.23;99448.25;6188907;23;20072;-85
2022/07/10 20:12:35;;;;;;;18.42;14.18;;;;;;;23.86;63.81;99447.22;6188756;23;20079;-84
2022/07/10 20:15:02;;;;;;;18.98;14.65;;;;;;;23.74;64.06;99438.78;6196710;23;20048;-84
2022/07/10 20:17:28;;;;;;;18.83;14.95;;;;;;;23.72;63.96;99438.13;6220380;23;20023;-84
2022/07/10 20:19:54;;;;;;;21.88;15.23;;;;;;;23.72;64.46;99443.59;6186997;23;20021;-86
2022/07/10 20:22:20;;;;;;;22.38;15.25;;;;;;;23.64;64.54;99449.22;6197256;23;20069;-87
2022/07/10 20:24:46;;;;;;;22.85;15.98;;;;;;;23.59;64.70;99447.09;6208070;23;20498;-87
2022/07/10 20:27:12;;;;;;;22.58;16.08;;;;;;;23.51;65.26;99441.81;6190373;23;20024;-88
2022/07/10 20:29:38;;;;;;;18.92;16.13;;;;;;;23.56;65.15;99452.13;6192084;23;20020;-86
2022/07/10 20:32:04;;;;;;;23.08;16.10;;;;;;;23.57;65.23;99461.97;6216399;23;20025;-87
2022/07/10 20:34:30;;;;;;;19.02;15.48;;;;;;;23.43;65.87;99453.75;6218433;23;20031;-88
2022/07/10 20:39:41;;;;;;;21.27;16.58;;;;;;;23.42;65.52;99462.13;6216787;23;20017;-86
2022/07/10 20:42:08;;;;;;;21.83;16.33;;;;;;;23.40;65.75;99456.88;6215339;23;20020;-87
2022/07/10 20:44:34;;;;;;;21.08;16.10;;;;;;;23.33;66.55;99460.63;6215300;23;20027;-86
2022/07/10 20:47:00;;;;;;;23.08;18.00;;;;;;;23.24;66.58;99458.06;6190277;23;20135;-86
2022/07/10 20:49:26;;;;;;;28.98;21.13;;;;;;;23.18;67.23;99449.84;6216814;23;20021;-87
2022/07/10 20:51:52;;;;;;;26.25;19.88;;;;;;;23.09;67.74;99451.03;6216239;23;20017;-86
2022/07/10 20:54:17;;;;;;;25.08;21.00;;;;;;;23.02;67.66;99451.88;6216730;23;20023;-87
2022/07/10 20:56:43;;;;;;;29.85;21.30;;;;;;;23.02;67.81;99457.31;6215223;23;20351;-86
2022/07/10 20:59:09;;;;;;;31.42;26.27;;;;;;;22.96;68.45;99462.72;6223691;23;20067;-87
2022/07/10 21:01:35;;;;;;;38.65;28.98;;;;;;;22.92;68.57;99461.44;6227705;23;20020;-87
2022/07/10 21:04:00;;;;;;;32.00;27.02;;;;;;;22.95;68.20;99461.03;6224658;23;20020;-87
2022/07/10 21:06:26;;;;;;;46.03;38.80;;;;;;;22.86;69.02;99457.56;6221701;23;20028;-86
2022/07/10 21:08:52;;;;;;;47.38;37.22;;;;;;;22.83;69.34;99460.72;6216329;23;20448;-87
2022/07/10 21:11:17;;;;;;;45.40;36.95;;;;;;;22.86;69.21;99460.31;6216897;23;20052;-86
2022/07/10 21:13:43;;;;;;;55.63;38.13;;;;;;;22.89;69.16;99457.19;6216527;23;20020;-85
2022/07/10 21:16:09;;;;;;;44.13;36.20;;;;;;;22.92;68.81;99461.44;6216753;23;20021;-86
2022/07/10 21:18:35;;;;;;;43.20;35.53;;;;;;;22.93;69.02;99468.56;6216154;23;20012;-86
2022/07/10 21:21:01;;;;;;;41.38;34.45;;;;;;;22.82;69.69;99464.47;6216575;23;20364;-85
2022/07/10 21:23:27;;;;;;;52.80;40.50;;;;;;;22.79;70.02;99465.72;6215917;23;20044;-85
2022/07/10 21:25:53;;;;;;;49.10;38.65;;;;;;;22.71;70.42;99471.31;6214888;23;20406;-87
2022/07/10 21:28:19;;;;;;;52.97;35.88;;;;;;;22.70;70.46;99468.78;6189713;23;20030;-86
2022/07/10 21:30:44;;;;;;;43.22;35.40;;;;;;;22.66;70.53;99467.50;6214857;23;20017;-86
2022/07/10 21:33:10;;;;;;;55.42;37.38;;;;;;;22.66;70.44;99467.50;6217245;23;20432;-88
2022/07/10 21:35:38;;;;;;;47.25;34.22;;;;;;;22.74;70.30;99475.53;6190684;23;20503;-85
2022/07/10 21:38:05;;;;;;;61.70;46.65;;;;;;;22.69;70.51;99472.56;6190225;23;20016;-86
2022/07/10 21:40:30;;;;;;;70.07;48.30;;;;;;;22.71;70.88;99467.75;6167199;23;20017;-86
2022/07/10 21:42:56;;;;;;;76.53;60.90;;;;;;;22.69;71.00;99467.94;6216736;23;20016;-86
2022/07/10 21:45:22;;;;;;;92.85;69.40;;;;;;;22.65;71.57;99466.66;6216527;23;20016;-86
2022/07/10 22:35:55;;;;;;;173.57;117.90;;;;;;;20.16;81.12;99481.97;5108497;27;1373133;-82
2022/07/10 22:38:21;;;;;;;274.85;205.27;;;;;;;20.45;82.02;99494.78;5110761;28;20047;-81
2022/07/10 22:40:47;;;;;;;316.25;253.23;;;;;;;20.67;81.47;99495.81;5110845;28;20497;-82
2022/07/10 22:43:13;;;;;;;281.83;232.13;;;;;;;20.86;80.67;99491.72;5109815;28;20108;-82
2022/07/10 22:45:39;;;;;;;267.25;216.85;;;;;;;21.01;79.79;99489.88;5109734;28;20058;-83
2022/07/10 22:48:05;;;;;;;261.63;210.27;;;;;;;21.17;79.08;99496.16;5112468;28;20044;-82
2022/07/10 22:50:30;;;;;;;242.07;192.60;;;;;;;21.29;78.32;99497.38;5111926;28;20093;-82
2022/07/10 22:52:57;;;;;;;232.55;188.23;;;;;;;21.39;78.12;99510.72;5109417;28;20051;-80
2022/07/10 22:55:23;;;;;;;155.30;123.60;;;;;;;21.32;78.11;99508.69;5092246;28;20044;-81
2022/07/10 22:57:49;;;;;;;144.90;118.65;;;;;;;21.36;77.65;99511.09;5111079;28;20122;-83
2022/07/10 23:00:16;;;;;;;159.65;131.60;;;;;;;21.40;77.03;99507.81;5110500;28;20078;-81
2022/07/10 23:02:44;;;;;;;180.52;149.70;;;;;;;21.47;76.57;99508.72;5108989;28;20558;-81
2022/07/10 23:05:10;;;;;;;182.90;152.90;;;;;;;21.53;76.19;99513.41;5109236;28;20035;-81
2022/07/10 23:07:36;;;;;;;179.50;139.65;;;;;;;21.42;76.38;99494.88;5110358;28;20040;-80
2022/07/10 23:10:02;;;;;;;154.68;121.63;;;;;;;21.41;76.57;99506.78;5109177;28;20493;-81
2022/07/10 23:12:32;;;;;;;141.63;117.75;;;;;;;21.42;76.31;99515.78;5110835;28;20062;-82
2022/07/10 23:14:57;;;;;;;157.60;131.43;;;;;;;21.36;76.70;99508.38;5108838;28;20047;-80
2022/07/10 23:17:23;;;;;;;189.63;151.57;;;;;;;21.36;76.90;99516.53;5110255;28;20040;-79
2022/07/10 23:19:49;;;;;;;136.73;118.13;;;;;;;21.27;77.33;99505.72;5108949;28;20443;-83
2022/07/10 23:22:15;;;;;;;117.50;92.60;;;;;;;21.13;78.20;99513.88;5110070;28;20120;-82
2022/07/10 23:24:41;;;;;;;100.55;81.93;;;;;;;21.03;78.59;99515.00;5110244;28;20039;-80
2022/07/10 23:27:07;;;;;;;114.80;89.85;;;;;;;21.03;78.49;99512.28;5108817;28;20051;-79
2022/07/10 23:29:32;;;;;;;128.07;101.70;;;;;;;21.03;78.09;99516.88;5108733;28;20043;-79
2022/07/10 23:31:58;;;;;;;138.15;108.40;;;;;;;21.02;78.24;99513.28;5109962;28;20406;-83
2022/07/10 23:34:29;;;;;;;140.43;106.63;;;;;;;21.00;78.37;99515.38;5108524;28;20402;-81
2022/07/10 23:36:59;;;;;;;147.88;113.38;;;;;;;21.06;77.99;99521.91;5122243;28;20062;-83
2022/07/10 23:39:25;;;;;;;184.57;140.88;;;;;;;20.92;78.95;99518.16;5111649;28;20104;-80
2022/07/10 23:41:52;;;;;;;142.27;108.50;;;;;;;20.74;79.77;99504.91;5111793;28;20039;-78
2022/07/10 23:44:17;;;;;;;113.07;89.65;;;;;;;20.71;80.08;99515.31;5130369;28;20061;-81
2022/07/10 23:46:43;;;;;;;98.70;77.32;;;;;;;20.60;80.08;99509.28;5100046;28;20565;-81
2022/07/10 23:51:54;;;;;;;102.05;79.85;;;;;;;20.71;79.47;99523.47;5116326;28;20408;-80
2022/07/10 23:54:19;;;;;;;109.60;83.00;;;;;;;20.84;78.87;99537.28;5081098;28;20044;-79
2022/07/10 23:56:45;;;;;;;103.32;75.93;;;;;;;20.87;79.08;99536.88;5097761;28;20035;-79
2022/07/10 23:59:11;;;;;;;226.88;171.25;;;;;;;20.82;79.33;99529.28;5115921;28;20055;-79
